Rock Springs, WY

2:57 AM MDT on August 22, 2014 (GMT -0600)
Rock Springs-Sweetwater | Change Station
CLOSE
Current Station
Airport
Location: Rock Springs,
Elevation: 6759 ft
Nearby Weather Stations

Elev 6759 ft 41.59 °N, 109.05 °W | Updated 1 hour ago

Clear
Clear
55 °F
Feels Like 55 °F
N
5
Wind Variable Wind from South

Today
High -- | Low -- °F
--% Chance of Precip.
Yesterday
High -- | Low -- °F
Precip. -- in
6:32 AM 8:05 PM
Waning Crescent, 9% visible
Pressure 29.98 in
Visibility 10.0 miles
Clouds Clear
Dew Point 42 °F
Humidity 62%
Rainfall 0.00 in
Snow Depth Not available.
UV 0 out of 12
Pollen 9.00 out of 12
Air Quality Not available.
Flu Activity Not available.
METAR KRKS 220754Z AUTO 18004KT 10SM CLR 13/06 A3019 RMK AO2 SLP151 T01280056

More Conditions Fewer Conditions

Pressure 29.98 in
Visibility 10.0 miles
Clouds Clear
Dew Point 42 °F
Humidity 62%
Rainfall 0.00 in
Snow Depth Not available.
UV 0 out of 12
Pollen 9.00 out of 12
Air Quality Not available.
Flu Activity Not available.
METAR KRKS 220754Z AUTO 18004KT 10SM CLR 13/06 A3019 RMK AO2 SLP151 T01280056

More Conditions Fewer Conditions

10-Day Weather Forecast

Almanac

Astronomy

Aug. 22, 2014 Rise Set
Actual Time 6:32 AM MDT 8:05 PM MDT
Civil Twilight 6:02 AM MDT 8:34 PM MDT
Nautical Twilight 5:27 AM MDT 9:09 PM MDT
Astronomical Twilight 4:49 AM MDT 9:47 PM MDT
Moon 3:56 AM MDT 6:16 PM MDT
Length of Visible Light 14h 31m
Length of Day
13h 33m
Tomorrow will be 2m 34s shorter.
Waning Crescent, 9% of the Moon is Illuminated
Today
Waning Crescent
Aug 25
New
Sep 2
First Quarter
Sep 8
Full
Sep 15
Last Quarter

Today's Extremes

State Highs State Lows

Community

WunderPhotos

Upload Photos

1,746,144 photos uploaded!

Nearby

Snow Depth

Station Depth Elevation
Big Sandy Opening 1 in 9080 ft
Hams Fork 0 in 7840 ft
Sage Creek Basin 0 in 7850 ft
Kelley R.S. 0 in 8180 ft
Divide Peak 0 in 8860 ft

Earthquake Activity

City Distance Mag. Time & Date
No recent earthquake activity has been reported nearby.
Minimum magnitude displayed is 2.5.

Coastal Water Temperatures

Place Temperature
No Stations Reporting

Nearby Weather Stations